RYR24UD EGSS-EIKN
Flight info
| Callsign | RYR24UD |
|---|---|
| Flight time | 1h 1m |
| Altitude | 34000 |
| Route | UTAVA Q75 BUZAD T420 TNT UL28 PENIL M144 BAGSO DCT SUROX DCT EDONO EDONO1B |
| Aircraft | B738/M-SDE2E3FGHIRWXY/LB1 |
Departure
| Time | 2026-05-04 10:49 |
|---|---|
| Airport | London Stansted Airport (EGSS) |
Arrival
| Time | 2026-05-04 11:51 |
|---|---|
| Airport | Ireland West Airport Knock (EIKN) |
| Time | Latitude | Longitude | Altitude | Speed | Heading |
|---|---|---|---|---|---|
| 2026-05-04 10:00 | 51.88812 | 0.25429 | 352 ft | 0 kts | 43° |
| 2026-05-04 10:35 | 51.88795 | 0.25406 | 357 ft | 4 kts | 31° |
| 2026-05-04 10:35 | 51.88771 | 0.25390 | 358 ft | 4 kts | 358° |
| 2026-05-04 10:35 | 51.88752 | 0.25401 | 356 ft | 1 kts | 312° |
| 2026-05-04 10:39 | 51.88783 | 0.25344 | 352 ft | 6 kts | 312° |
| 2026-05-04 10:39 | 51.88809 | 0.25298 | 352 ft | 6 kts | 312° |
| 2026-05-04 10:39 | 51.88838 | 0.25247 | 352 ft | 6 kts | 314° |
| 2026-05-04 10:40 | 51.88872 | 0.25190 | 359 ft | 8 kts | 313° |
| 2026-05-04 10:40 | 51.88910 | 0.25124 | 352 ft | 8 kts | 313° |
| 2026-05-04 10:40 | 51.88949 | 0.25056 | 352 ft | 8 kts | 313° |
| 2026-05-04 10:40 | 51.88967 | 0.24972 | 356 ft | 9 kts | 253° |
| 2026-05-04 10:41 | 51.88914 | 0.24883 | 353 ft | 14 kts | 224° |
| 2026-05-04 10:41 | 51.88832 | 0.24758 | 354 ft | 17 kts | 223° |
| 2026-05-04 10:41 | 51.88746 | 0.24631 | 349 ft | 16 kts | 222° |
| 2026-05-04 10:41 | 51.88664 | 0.24507 | 355 ft | 16 kts | 223° |
| 2026-05-04 10:42 | 51.88584 | 0.24389 | 349 ft | 15 kts | 223° |
| 2026-05-04 10:42 | 51.88506 | 0.24270 | 346 ft | 16 kts | 223° |
| 2026-05-04 10:42 | 51.88416 | 0.24136 | 349 ft | 19 kts | 223° |
| 2026-05-04 10:42 | 51.88316 | 0.23984 | 344 ft | 21 kts | 223° |
| 2026-05-04 10:43 | 51.88205 | 0.23819 | 342 ft | 22 kts | 223° |
| 2026-05-04 10:44 | 51.87778 | 0.22945 | 335 ft | 7 kts | 306° |
| 2026-05-04 10:45 | 51.87771 | 0.22875 | 331 ft | 8 kts | 225° |
| 2026-05-04 10:45 | 51.87718 | 0.22793 | 334 ft | 13 kts | 223° |
| 2026-05-04 10:45 | 51.87648 | 0.22688 | 335 ft | 14 kts | 223° |
| 2026-05-04 10:45 | 51.87579 | 0.22585 | 332 ft | 13 kts | 223° |
| 2026-05-04 10:46 | 51.87520 | 0.22491 | 331 ft | 10 kts | 237° |
| 2026-05-04 10:46 | 51.87531 | 0.22407 | 328 ft | 8 kts | 307° |
| 2026-05-04 10:46 | 51.87547 | 0.22379 | 328 ft | 0 kts | 313° |
| 2026-05-04 10:47 | 51.87549 | 0.22375 | 333 ft | 2 kts | 313° |
| 2026-05-04 10:47 | 51.87579 | 0.22325 | 330 ft | 11 kts | 313° |
| 2026-05-04 10:47 | 51.87654 | 0.22250 | 331 ft | 13 kts | 351° |
| 2026-05-04 10:49 | 51.91876 | 0.28638 | 3031 ft | 172 kts | 39° |
| 2026-05-04 10:49 | 51.92909 | 0.29597 | 3766 ft | 178 kts | 19° |
| 2026-05-04 10:50 | 51.94224 | 0.29918 | 4070 ft | 206 kts | 357° |
| 2026-05-04 10:51 | 51.99468 | 0.13420 | 6871 ft | 271 kts | 310° |
| 2026-05-04 10:52 | 52.00698 | 0.11076 | 7669 ft | 275 kts | 309° |
| 2026-05-04 10:52 | 52.01948 | 0.08693 | 8472 ft | 279 kts | 309° |
| 2026-05-04 10:52 | 52.03207 | 0.06268 | 9286 ft | 283 kts | 308° |
| 2026-05-04 10:54 | 52.13254 | -0.13690 | 13318 ft | 355 kts | 307° |
| 2026-05-04 10:54 | 52.14812 | -0.16826 | 14034 ft | 358 kts | 307° |
| 2026-05-04 10:56 | 52.26141 | -0.39785 | 18548 ft | 384 kts | 307° |
| 2026-05-04 10:56 | 52.27817 | -0.43199 | 19165 ft | 386 kts | 307° |
| 2026-05-04 10:56 | 52.29495 | -0.46621 | 19817 ft | 386 kts | 306° |
| 2026-05-04 10:57 | 52.31177 | -0.50058 | 20406 ft | 389 kts | 306° |
| 2026-05-04 10:57 | 52.32872 | -0.53525 | 20940 ft | 392 kts | 306° |
| 2026-05-04 10:57 | 52.34580 | -0.57025 | 21477 ft | 395 kts | 306° |
| 2026-05-04 10:57 | 52.36297 | -0.60548 | 22022 ft | 398 kts | 306° |
| 2026-05-04 10:58 | 52.38027 | -0.64102 | 22570 ft | 400 kts | 306° |
| 2026-05-04 10:58 | 52.39765 | -0.67679 | 23092 ft | 403 kts | 306° |
| 2026-05-04 10:58 | 52.41517 | -0.71287 | 23599 ft | 406 kts | 306° |
| 2026-05-04 10:58 | 52.43277 | -0.74918 | 24018 ft | 409 kts | 306° |
| 2026-05-04 10:59 | 52.45047 | -0.78576 | 24439 ft | 411 kts | 306° |
| 2026-05-04 10:59 | 52.46830 | -0.82264 | 24859 ft | 413 kts | 306° |
| 2026-05-04 10:59 | 52.48617 | -0.85967 | 25266 ft | 416 kts | 306° |
| 2026-05-04 10:59 | 52.50417 | -0.89703 | 25662 ft | 418 kts | 305° |
| 2026-05-04 11:00 | 52.52224 | -0.93458 | 26048 ft | 421 kts | 306° |
| 2026-05-04 11:01 | 52.65272 | -1.20736 | 28413 ft | 443 kts | 307° |
| 2026-05-04 11:02 | 52.67177 | -1.24743 | 28733 ft | 445 kts | 307° |
| 2026-05-04 11:02 | 52.69121 | -1.28663 | 29102 ft | 447 kts | 312° |
| 2026-05-04 11:05 | 53.05289 | -1.66880 | 34049 ft | 442 kts | 330° |
| 2026-05-04 11:06 | 53.10512 | -1.72307 | 34061 ft | 441 kts | 330° |
| 2026-05-04 11:06 | 53.15666 | -1.77686 | 34063 ft | 435 kts | 330° |
| 2026-05-04 11:08 | 53.28810 | -2.02697 | 34076 ft | 447 kts | 298° |
| 2026-05-04 11:10 | 53.37744 | -2.36030 | 34079 ft | 454 kts | 290° |
| 2026-05-04 11:12 | 53.45270 | -2.76608 | 34066 ft | 457 kts | 291° |
| 2026-05-04 11:12 | 53.47172 | -2.86779 | 34064 ft | 457 kts | 290° |
| 2026-05-04 11:13 | 53.49058 | -2.96970 | 34073 ft | 457 kts | 290° |
| 2026-05-04 11:13 | 53.50923 | -3.07187 | 34069 ft | 457 kts | 290° |
| 2026-05-04 11:14 | 53.52779 | -3.17404 | 34064 ft | 457 kts | 290° |
| 2026-05-04 11:16 | 53.60157 | -3.58359 | 34078 ft | 457 kts | 290° |
| 2026-05-04 11:16 | 53.61789 | -3.68738 | 34064 ft | 462 kts | 280° |
| 2026-05-04 11:17 | 53.62230 | -3.79568 | 34076 ft | 465 kts | 276° |
| 2026-05-04 11:19 | 53.63906 | -4.23100 | 34076 ft | 466 kts | 277° |
| 2026-05-04 11:19 | 53.64306 | -4.34009 | 34096 ft | 467 kts | 277° |
| 2026-05-04 11:20 | 53.64692 | -4.44946 | 34080 ft | 468 kts | 276° |
| 2026-05-04 11:20 | 53.65070 | -4.55902 | 34091 ft | 468 kts | 276° |
| 2026-05-04 11:22 | 53.66304 | -4.93337 | 33537 ft | 439 kts | 276° |
| 2026-05-04 11:22 | 53.66476 | -4.98472 | 33146 ft | 436 kts | 276° |
| 2026-05-04 11:23 | 53.66645 | -5.03573 | 32672 ft | 435 kts | 276° |
| 2026-05-04 11:23 | 53.66809 | -5.08650 | 32316 ft | 431 kts | 276° |
| 2026-05-04 11:24 | 53.67672 | -5.38027 | 30636 ft | 410 kts | 277° |
| 2026-05-04 11:25 | 53.67807 | -5.42857 | 30409 ft | 414 kts | 277° |
| 2026-05-04 11:25 | 53.67968 | -5.47708 | 30164 ft | 412 kts | 281° |
| 2026-05-04 11:25 | 53.68478 | -5.52396 | 29864 ft | 403 kts | 291° |
| 2026-05-04 11:26 | 53.70357 | -5.61136 | 29273 ft | 391 kts | 296° |
| 2026-05-04 11:27 | 53.76805 | -5.90407 | 26943 ft | 371 kts | 294° |
| 2026-05-04 11:28 | 53.77687 | -5.94489 | 26684 ft | 367 kts | 294° |
| 2026-05-04 11:28 | 53.78556 | -5.98528 | 26364 ft | 365 kts | 294° |
| 2026-05-04 11:28 | 53.79419 | -6.02541 | 26025 ft | 363 kts | 294° |
| 2026-05-04 11:28 | 53.80278 | -6.06547 | 25692 ft | 361 kts | 294° |
| 2026-05-04 11:29 | 53.81130 | -6.10527 | 25357 ft | 359 kts | 294° |
| 2026-05-04 11:29 | 53.81976 | -6.14485 | 25018 ft | 357 kts | 293° |
| 2026-05-04 11:29 | 53.82817 | -6.18431 | 24687 ft | 356 kts | 293° |
| 2026-05-04 11:29 | 53.83654 | -6.22364 | 24347 ft | 355 kts | 293° |
| 2026-05-04 11:31 | 53.89392 | -6.49538 | 21904 ft | 343 kts | 292° |
| 2026-05-04 11:33 | 53.94854 | -6.75747 | 19646 ft | 332 kts | 291° |
| 2026-05-04 11:33 | 53.95618 | -6.79445 | 19324 ft | 331 kts | 291° |
| 2026-05-04 11:33 | 53.96377 | -6.83121 | 19009 ft | 330 kts | 291° |
| 2026-05-04 11:34 | 53.97134 | -6.86790 | 18692 ft | 328 kts | 291° |
| 2026-05-04 11:34 | 53.97885 | -6.90442 | 18372 ft | 327 kts | 291° |
| 2026-05-04 11:34 | 53.98633 | -6.94085 | 18014 ft | 326 kts | 291° |
| 2026-05-04 11:34 | 53.99366 | -6.97711 | 17674 ft | 324 kts | 288° |
| 2026-05-04 11:35 | 53.99749 | -7.01479 | 17342 ft | 324 kts | 272° |
| 2026-05-04 11:35 | 53.99742 | -7.05284 | 17054 ft | 321 kts | 270° |
| 2026-05-04 11:35 | 53.99699 | -7.09073 | 16730 ft | 319 kts | 270° |
| 2026-05-04 11:35 | 53.99654 | -7.12835 | 16426 ft | 318 kts | 270° |
| 2026-05-04 11:36 | 53.99613 | -7.16578 | 16105 ft | 315 kts | 270° |
| 2026-05-04 11:36 | 53.99577 | -7.20289 | 15808 ft | 313 kts | 270° |
| 2026-05-04 11:36 | 53.99544 | -7.23984 | 15507 ft | 311 kts | 270° |
| 2026-05-04 11:36 | 53.99512 | -7.27653 | 15205 ft | 310 kts | 270° |
| 2026-05-04 11:37 | 53.99481 | -7.31303 | 14904 ft | 308 kts | 271° |
| 2026-05-04 11:37 | 53.99451 | -7.34934 | 14607 ft | 307 kts | 270° |
| 2026-05-04 11:37 | 53.99419 | -7.38546 | 14302 ft | 305 kts | 271° |
| 2026-05-04 11:37 | 53.99387 | -7.42145 | 14008 ft | 304 kts | 271° |
| 2026-05-04 11:38 | 53.99355 | -7.45686 | 13696 ft | 303 kts | 270° |
| 2026-05-04 11:38 | 53.99322 | -7.49310 | 13361 ft | 302 kts | 270° |
| 2026-05-04 11:38 | 53.99287 | -7.52867 | 13040 ft | 300 kts | 270° |
| 2026-05-04 11:38 | 53.99251 | -7.56400 | 12743 ft | 298 kts | 270° |
| 2026-05-04 11:39 | 53.99216 | -7.59914 | 12455 ft | 297 kts | 270° |
| 2026-05-04 11:39 | 53.99180 | -7.63421 | 12140 ft | 296 kts | 270° |
| 2026-05-04 11:40 | 54.00431 | -7.83987 | 10363 ft | 290 kts | 281° |
| 2026-05-04 11:41 | 54.00775 | -7.87356 | 10071 ft | 289 kts | 281° |
| 2026-05-04 11:41 | 54.01111 | -7.90712 | 9753 ft | 288 kts | 281° |
| 2026-05-04 11:41 | 54.01315 | -7.94081 | 9422 ft | 288 kts | 267° |
| 2026-05-04 11:41 | 54.00977 | -7.97412 | 9171 ft | 285 kts | 259° |
| 2026-05-04 11:42 | 54.00562 | -8.00699 | 8869 ft | 284 kts | 260° |
| 2026-05-04 11:42 | 54.00155 | -8.03972 | 8577 ft | 282 kts | 259° |
| 2026-05-04 11:42 | 53.99758 | -8.07235 | 8278 ft | 281 kts | 260° |
| 2026-05-04 11:42 | 53.99374 | -8.10476 | 7996 ft | 279 kts | 261° |
| 2026-05-04 11:43 | 53.98995 | -8.13699 | 7714 ft | 278 kts | 260° |
| 2026-05-04 11:43 | 53.98626 | -8.16866 | 7434 ft | 276 kts | 262° |
| 2026-05-04 11:43 | 53.98340 | -8.20065 | 7146 ft | 271 kts | 263° |
| 2026-05-04 11:43 | 53.98045 | -8.23175 | 6835 ft | 264 kts | 262° |
| 2026-05-04 11:44 | 53.97705 | -8.26194 | 6545 ft | 256 kts | 260° |
| 2026-05-04 11:44 | 53.97352 | -8.29126 | 6241 ft | 250 kts | 260° |
| 2026-05-04 11:44 | 53.97002 | -8.31989 | 5953 ft | 245 kts | 259° |
| 2026-05-04 11:44 | 53.96659 | -8.34794 | 5660 ft | 240 kts | 259° |
| 2026-05-04 11:45 | 53.96324 | -8.37543 | 5345 ft | 235 kts | 259° |
| 2026-05-04 11:45 | 53.95997 | -8.40241 | 5033 ft | 231 kts | 258° |
| 2026-05-04 11:45 | 53.95677 | -8.42878 | 4752 ft | 225 kts | 259° |
| 2026-05-04 11:45 | 53.95365 | -8.45451 | 4497 ft | 218 kts | 259° |
| 2026-05-04 11:46 | 53.95065 | -8.47921 | 4275 ft | 209 kts | 260° |
| 2026-05-04 11:46 | 53.94780 | -8.50302 | 4012 ft | 202 kts | 259° |
| 2026-05-04 11:46 | 53.94506 | -8.52585 | 3781 ft | 193 kts | 261° |
| 2026-05-04 11:46 | 53.94246 | -8.54746 | 3534 ft | 182 kts | 261° |
| 2026-05-04 11:47 | 53.93999 | -8.56802 | 3319 ft | 173 kts | 261° |
| 2026-05-04 11:47 | 53.93768 | -8.58732 | 3215 ft | 160 kts | 261° |
| 2026-05-04 11:47 | 53.93552 | -8.60546 | 3068 ft | 155 kts | 261° |
| 2026-05-04 11:47 | 53.93342 | -8.62304 | 2839 ft | 150 kts | 262° |
| 2026-05-04 11:48 | 53.93138 | -8.64009 | 2638 ft | 147 kts | 262° |
| 2026-05-04 11:48 | 53.92935 | -8.65731 | 2457 ft | 151 kts | 263° |
| 2026-05-04 11:48 | 53.92728 | -8.67472 | 2237 ft | 150 kts | 263° |
| 2026-05-04 11:48 | 53.92522 | -8.69196 | 2029 ft | 148 kts | 263° |
| 2026-05-04 11:49 | 53.92323 | -8.70887 | 1834 ft | 144 kts | 262° |
| 2026-05-04 11:49 | 53.92123 | -8.72572 | 1609 ft | 146 kts | 262° |
| 2026-05-04 11:49 | 53.91923 | -8.74256 | 1416 ft | 146 kts | 263° |
| 2026-05-04 11:49 | 53.91723 | -8.75935 | 1195 ft | 145 kts | 263° |
| 2026-05-04 11:50 | 53.91531 | -8.77597 | 1017 ft | 143 kts | 263° |
| 2026-05-04 11:50 | 53.91331 | -8.79279 | 795 ft | 146 kts | 264° |
| 2026-05-04 11:50 | 53.91134 | -8.80945 | 655 ft | 138 kts | 263° |
| 2026-05-04 11:50 | 53.90996 | -8.82170 | 628 ft | 67 kts | 258° |
| 2026-05-04 11:51 | 53.90968 | -8.82495 | 623 ft | 9 kts | 307° |
| 2026-05-04 11:51 | 53.91025 | -8.82522 | 619 ft | 8 kts | 349° |
| 2026-05-04 11:51 | 53.91078 | -8.82539 | 622 ft | 8 kts | 349° |
| 2026-05-04 11:51 | 53.91130 | -8.82557 | 618 ft | 8 kts | 349° |
| 2026-05-04 11:52 | 53.91179 | -8.82545 | 626 ft | 7 kts | 32° |
| 2026-05-04 11:52 | 53.91209 | -8.82526 | 629 ft | 7 kts | 358° |
| 2026-05-04 11:52 | 53.91223 | -8.82581 | 618 ft | 4 kts | 242° |
| 2026-05-04 11:52 | 53.91199 | -8.82594 | 620 ft | 0 kts | 170° |
| 2026-05-04 11:55 | 53.90986 | -8.82237 | 630 ft | 18 kts | 79° |
| 2026-05-04 11:55 | 53.91014 | -8.81997 | 637 ft | 24 kts | 78° |
| 2026-05-04 11:56 | 53.91051 | -8.81690 | 636 ft | 29 kts | 79° |
| 2026-05-04 11:56 | 53.91093 | -8.81330 | 641 ft | 31 kts | 79° |
| 2026-05-04 11:56 | 53.91133 | -8.80996 | 654 ft | 23 kts | 76° |
| 2026-05-04 11:56 | 53.91162 | -8.80867 | 656 ft | 9 kts | 22° |
| 2026-05-04 11:57 | 53.91227 | -8.80881 | 656 ft | 10 kts | 349° |
| 2026-05-04 11:57 | 53.91293 | -8.80905 | 654 ft | 10 kts | 348° |
| 2026-05-04 11:57 | 53.91342 | -8.80909 | 654 ft | 6 kts | 25° |
| 2026-05-04 11:57 | 53.91380 | -8.80901 | 655 ft | 6 kts | 334° |
| 2026-05-04 11:58 | 53.91388 | -8.80960 | 656 ft | 5 kts | 265° |
| 2026-05-04 11:58 | 53.91395 | -8.80991 | 653 ft | 2 kts | 311° |
| 2026-05-04 11:58 | 53.91404 | -8.81000 | 655 ft | 1 kts | 329° |
| 2026-05-04 11:58 | 53.91413 | -8.81006 | 654 ft | 1 kts | 337° |
| 2026-05-04 11:59 | 53.91417 | -8.81008 | 654 ft | 0 kts | 339° |
| 2026-05-04 12:00 | 53.91417 | -8.81010 | 653 ft | 0 kts | 346° |